sensor_id;sensor_type;location;lat;lon;timestamp;pressure;altitude;pressure_sealevel;temperature;humidity
24825;BME280;12910;57.690;11.974;2023-04-01T00:01:18;99753.31;;;-0.33;100.00
24825;BME280;12910;57.690;11.974;2023-04-01T00:03:44;99756.41;;;-0.38;100.00
24825;BME280;12910;57.690;11.974;2023-04-01T00:06:13;99758.13;;;-0.37;100.00
24825;BME280;12910;57.690;11.974;2023-04-01T00:08:39;99752.25;;;-0.38;100.00
24825;BME280;12910;57.690;11.974;2023-04-01T00:11:04;99761.75;;;-0.50;100.00
24825;BME280;12910;57.690;11.974;2023-04-01T00:13:30;99760.81;;;-0.52;100.00
24825;BME280;12910;57.690;11.974;2023-04-01T00:15:55;99759.44;;;-0.45;100.00
24825;BME280;12910;57.690;11.974;2023-04-01T00:18:21;99769.44;;;-0.47;100.00
24825;BME280;12910;57.690;11.974;2023-04-01T00:20:48;99761.47;;;-0.56;100.00
24825;BME280;12910;57.690;11.974;2023-04-01T00:23:15;99766.50;;;-0.56;100.00
24825;BME280;12910;57.690;11.974;2023-04-01T00:25:41;99770.53;;;-0.60;100.00
24825;BME280;12910;57.690;11.974;2023-04-01T00:28:06;99775.00;;;-0.54;100.00
24825;BME280;12910;57.690;11.974;2023-04-01T00:30:32;99768.22;;;-0.55;100.00
24825;BME280;12910;57.690;11.974;2023-04-01T00:32:57;99779.59;;;-0.64;100.00
24825;BME280;12910;57.690;11.974;2023-04-01T00:35:22;99771.66;;;-0.71;100.00
24825;BME280;12910;57.690;11.974;2023-04-01T00:37:48;99786.03;;;-0.69;100.00
24825;BME280;12910;57.690;11.974;2023-04-01T00:40:32;99786.72;;;-0.73;100.00
24825;BME280;12910;57.690;11.974;2023-04-01T00:42:59;99804.88;;;-0.79;100.00
24825;BME280;12910;57.690;11.974;2023-04-01T00:47:54;99799.97;;;-0.93;100.00
24825;BME280;12910;57.690;11.974;2023-04-01T00:50:21;99793.19;;;-0.95;100.00
24825;BME280;12910;57.690;11.974;2023-04-01T00:52:50;99804.78;;;-0.98;100.00
24825;BME280;12910;57.690;11.974;2023-04-01T00:55:16;99801.81;;;-1.07;100.00
24825;BME280;12910;57.690;11.974;2023-04-01T00:57:44;99814.44;;;-1.06;100.00
24825;BME280;12910;57.690;11.974;2023-04-01T01:00:12;99817.44;;;-1.13;100.00
24825;BME280;12910;57.690;11.974;2023-04-01T01:02:42;99823.56;;;-1.08;100.00
24825;BME280;12910;57.690;11.974;2023-04-01T01:05:12;99828.31;;;-1.31;100.00
24825;BME280;12910;57.690;11.974;2023-04-01T01:10:33;99840.38;;;-1.23;100.00
24825;BME280;12910;57.690;11.974;2023-04-01T01:13:10;99837.53;;;-1.30;100.00
24825;BME280;12910;57.690;11.974;2023-04-01T01:16:13;99839.44;;;-1.42;100.00
24825;BME280;12910;57.690;11.974;2023-04-01T01:18:45;99842.81;;;-1.42;100.00
24825;BME280;12910;57.690;11.974;2023-04-01T01:24:45;99855.31;;;-1.43;100.00
24825;BME280;12910;57.690;11.974;2023-04-01T01:27:18;99856.09;;;-1.44;100.00
24825;BME280;12910;57.690;11.974;2023-04-01T01:35:51;99869.31;;;-1.63;100.00
24825;BME280;12910;57.690;11.974;2023-04-01T01:38:23;99865.34;;;-1.60;100.00
24825;BME280;12910;57.690;11.974;2023-04-01T01:40:50;99870.53;;;-1.57;100.00
24825;BME280;12910;57.690;11.974;2023-04-01T01:43:23;99871.41;;;-1.56;100.00
24825;BME280;12910;57.690;11.974;2023-04-01T01:45:53;99879.00;;;-1.71;100.00
24825;BME280;12910;57.690;11.974;2023-04-01T01:48:20;99874.22;;;-1.66;100.00
24825;BME280;12910;57.690;11.974;2023-04-01T01:50:46;99866.44;;;-1.71;100.00
24825;BME280;12910;57.690;11.974;2023-04-01T01:53:13;99877.44;;;-1.69;100.00
24825;BME280;12910;57.690;11.974;2023-04-01T01:55:45;99878.41;;;-1.82;100.00
24825;BME280;12910;57.690;11.974;2023-04-01T01:58:23;99883.81;;;-1.91;100.00
24825;BME280;12910;57.690;11.974;2023-04-01T02:01:01;99879.09;;;-1.84;100.00
24825;BME280;12910;57.690;11.974;2023-04-01T02:03:30;99872.19;;;-1.89;100.00
24825;BME280;12910;57.690;11.974;2023-04-01T02:05:58;99880.84;;;-1.83;100.00
24825;BME280;12910;57.690;11.974;2023-04-01T02:08:32;99883.16;;;-1.86;100.00
24825;BME280;12910;57.690;11.974;2023-04-01T02:11:05;99880.34;;;-1.93;100.00
24825;BME280;12910;57.690;11.974;2023-04-01T02:16:00;99893.63;;;-2.10;100.00
24825;BME280;12910;57.690;11.974;2023-04-01T02:18:28;99882.94;;;-2.06;100.00
24825;BME280;12910;57.690;11.974;2023-04-01T02:20:57;99886.41;;;-2.04;100.00
24825;BME280;12910;57.690;11.974;2023-04-01T02:23:23;99886.28;;;-2.07;100.00
24825;BME280;12910;57.690;11.974;2023-04-01T02:25:49;99881.91;;;-2.10;100.00
24825;BME280;12910;57.690;11.974;2023-04-01T02:28:15;99887.97;;;-2.06;100.00
24825;BME280;12910;57.690;11.974;2023-04-01T02:30:45;99898.56;;;-2.12;100.00
24825;BME280;12910;57.690;11.974;2023-04-01T02:33:12;99898.31;;;-2.16;100.00
24825;BME280;12910;57.690;11.974;2023-04-01T02:35:37;99896.91;;;-2.11;100.00
24825;BME280;12910;57.690;11.974;2023-04-01T02:38:03;99903.22;;;-2.03;100.00
24825;BME280;12910;57.690;11.974;2023-04-01T02:40:41;99906.00;;;-2.13;100.00
24825;BME280;12910;57.690;11.974;2023-04-01T02:43:07;99907.72;;;-2.12;100.00
24825;BME280;12910;57.690;11.974;2023-04-01T02:45:32;99907.91;;;-2.09;100.00
24825;BME280;12910;57.690;11.974;2023-04-01T02:47:57;99907.03;;;-2.10;100.00
24825;BME280;12910;57.690;11.974;2023-04-01T02:50:23;99911.91;;;-2.13;100.00
24825;BME280;12910;57.690;11.974;2023-04-01T02:52:48;99922.09;;;-2.10;100.00
24825;BME280;12910;57.690;11.974;2023-04-01T02:55:13;99919.19;;;-2.17;100.00
24825;BME280;12910;57.690;11.974;2023-04-01T02:57:39;99908.88;;;-2.37;100.00
24825;BME280;12910;57.690;11.974;2023-04-01T03:00:05;99930.50;;;-2.24;100.00
24825;BME280;12910;57.690;11.974;2023-04-01T03:02:36;99927.47;;;-2.33;100.00
24825;BME280;12910;57.690;11.974;2023-04-01T03:05:02;99926.84;;;-2.44;100.00
24825;BME280;12910;57.690;11.974;2023-04-01T03:07:28;99927.81;;;-2.42;100.00
24825;BME280;12910;57.690;11.974;2023-04-01T03:09:53;99932.81;;;-2.42;100.00
24825;BME280;12910;57.690;11.974;2023-04-01T03:12:18;99934.75;;;-2.38;100.00
24825;BME280;12910;57.690;11.974;2023-04-01T03:14:44;99934.75;;;-2.38;100.00
24825;BME280;12910;57.690;11.974;2023-04-01T03:17:09;99936.72;;;-2.47;100.00
24825;BME280;12910;57.690;11.974;2023-04-01T03:19:34;99936.63;;;-2.49;100.00
24825;BME280;12910;57.690;11.974;2023-04-01T03:22:00;99940.19;;;-2.45;100.00
24825;BME280;12910;57.690;11.974;2023-04-01T03:24:25;99945.03;;;-2.48;100.00
24825;BME280;12910;57.690;11.974;2023-04-01T03:26:50;99944.78;;;-2.53;100.00
24825;BME280;12910;57.690;11.974;2023-04-01T03:29:16;99951.84;;;-2.61;100.00
24825;BME280;12910;57.690;11.974;2023-04-01T03:31:41;99957.75;;;-2.60;100.00
24825;BME280;12910;57.690;11.974;2023-04-01T03:34:07;99957.06;;;-2.58;100.00
24825;BME280;12910;57.690;11.974;2023-04-01T03:36:33;99961.88;;;-2.61;100.00
24825;BME280;12910;57.690;11.974;2023-04-01T03:38:59;99963.63;;;-2.60;100.00
24825;BME280;12910;57.690;11.974;2023-04-01T03:41:24;99968.44;;;-2.63;100.00
24825;BME280;12910;57.690;11.974;2023-04-01T03:43:50;99966.34;;;-2.70;100.00
24825;BME280;12910;57.690;11.974;2023-04-01T03:46:19;99970.53;;;-2.71;100.00
24825;BME280;12910;57.690;11.974;2023-04-01T03:48:45;99974.34;;;-2.62;100.00
24825;BME280;12910;57.690;11.974;2023-04-01T03:51:10;99966.53;;;-2.67;100.00
24825;BME280;12910;57.690;11.974;2023-04-01T03:53:36;99978.31;;;-2.66;100.00
24825;BME280;12910;57.690;11.974;2023-04-01T03:56:06;99969.41;;;-2.61;100.00
24825;BME280;12910;57.690;11.974;2023-04-01T03:58:32;99987.31;;;-2.55;100.00
24825;BME280;12910;57.690;11.974;2023-04-01T04:00:57;99976.75;;;-2.64;100.00
24825;BME280;12910;57.690;11.974;2023-04-01T04:03:24;99974.66;;;-2.71;100.00
24825;BME280;12910;57.690;11.974;2023-04-01T04:05:49;99972.16;;;-2.71;100.00
24825;BME280;12910;57.690;11.974;2023-04-01T04:08:15;99979.66;;;-2.71;100.00
24825;BME280;12910;57.690;11.974;2023-04-01T04:10:41;99987.19;;;-2.71;100.00
24825;BME280;12910;57.690;11.974;2023-04-01T04:13:07;99984.34;;;-2.77;100.00
24825;BME280;12910;57.690;11.974;2023-04-01T04:15:32;99987.97;;;-2.72;100.00
24825;BME280;12910;57.690;11.974;2023-04-01T04:17:58;99981.06;;;-2.76;100.00
24825;BME280;12910;57.690;11.974;2023-04-01T04:20:23;99997.44;;;-2.82;100.00
24825;BME280;12910;57.690;11.974;2023-04-01T04:22:48;99989.56;;;-2.88;100.00
24825;BME280;12910;57.690;11.974;2023-04-01T04:25:14;99992.28;;;-2.85;100.00
24825;BME280;12910;57.690;11.974;2023-04-01T04:27:39;99984.38;;;-2.91;100.00
24825;BME280;12910;57.690;11.974;2023-04-01T04:30:06;99996.63;;;-2.95;100.00
24825;BME280;12910;57.690;11.974;2023-04-01T04:32:32;99999.63;;;-3.01;100.00
24825;BME280;12910;57.690;11.974;2023-04-01T04:34:57;100007.56;;;-3.08;100.00
24825;BME280;12910;57.690;11.974;2023-04-01T04:37:22;100014.13;;;-3.10;100.00
24825;BME280;12910;57.690;11.974;2023-04-01T04:39:48;100025.69;;;-3.13;100.00
24825;BME280;12910;57.690;11.974;2023-04-01T04:42:13;100013.25;;;-3.11;100.00
24825;BME280;12910;57.690;11.974;2023-04-01T04:44:39;100020.38;;;-3.17;100.00
24825;BME280;12910;57.690;11.974;2023-04-01T04:47:04;100025.31;;;-3.19;100.00
24825;BME280;12910;57.690;11.974;2023-04-01T04:49:30;100031.50;;;-3.14;100.00
24825;BME280;12910;57.690;11.974;2023-04-01T04:51:56;100028.00;;;-3.16;100.00
24825;BME280;12910;57.690;11.974;2023-04-01T04:54:21;100036.88;;;-3.21;100.00
24825;BME280;12910;57.690;11.974;2023-04-01T04:56:46;100035.13;;;-3.22;100.00
24825;BME280;12910;57.690;11.974;2023-04-01T04:59:12;100043.47;;;-3.23;100.00
24825;BME280;12910;57.690;11.974;2023-04-01T05:01:38;100049.31;;;-3.22;100.00
24825;BME280;12910;57.690;11.974;2023-04-01T05:04:03;100044.31;;;-3.22;100.00
24825;BME280;12910;57.690;11.974;2023-04-01T05:06:29;100046.03;;;-3.21;100.00
24825;BME280;12910;57.690;11.974;2023-04-01T05:08:55;100058.84;;;-3.17;100.00
24825;BME280;12910;57.690;11.974;2023-04-01T05:11:20;100058.09;;;-3.16;100.00
24825;BME280;12910;57.690;11.974;2023-04-01T05:13:46;100062.22;;;-3.16;100.00
24825;BME280;12910;57.690;11.974;2023-04-01T05:16:16;100058.66;;;-3.20;100.00
24825;BME280;12910;57.690;11.974;2023-04-01T05:18:42;100064.06;;;-3.14;100.00
24825;BME280;12910;57.690;11.974;2023-04-01T05:21:10;100073.63;;;-3.21;100.00
24825;BME280;12910;57.690;11.974;2023-04-01T05:23:36;100081.81;;;-3.24;100.00
24825;BME280;12910;57.690;11.974;2023-04-01T05:26:06;100079.41;;;-3.22;100.00
24825;BME280;12910;57.690;11.974;2023-04-01T05:28:32;100064.56;;;-3.19;100.00
24825;BME280;12910;57.690;11.974;2023-04-01T05:30:59;100078.50;;;-3.09;100.00
24825;BME280;12910;57.690;11.974;2023-04-01T05:33:26;100094.44;;;-3.09;100.00
24825;BME280;12910;57.690;11.974;2023-04-01T05:35:52;100099.16;;;-3.14;100.00
24825;BME280;12910;57.690;11.974;2023-04-01T05:38:17;100093.66;;;-3.08;100.00
24825;BME280;12910;57.690;11.974;2023-04-01T05:40:42;100097.22;;;-3.04;100.00
24825;BME280;12910;57.690;11.974;2023-04-01T05:43:08;100105.22;;;-2.97;100.00
24825;BME280;12910;57.690;11.974;2023-04-01T05:45:34;100103.47;;;-2.98;100.00
24825;BME280;12910;57.690;11.974;2023-04-01T05:47:59;100106.19;;;-3.08;100.00
24825;BME280;12910;57.690;11.974;2023-04-01T05:50:25;100113.31;;;-3.01;100.00
24825;BME280;12910;57.690;11.974;2023-04-01T05:52:50;100109.56;;;-2.94;100.00
24825;BME280;12910;57.690;11.974;2023-04-01T05:55:16;100113.91;;;-2.91;100.00
24825;BME280;12910;57.690;11.974;2023-04-01T05:57:41;100110.50;;;-2.92;100.00
24825;BME280;12910;57.690;11.974;2023-04-01T06:00:07;100116.28;;;-2.79;100.00
24825;BME280;12910;57.690;11.974;2023-04-01T06:02:33;100121.50;;;-2.76;100.00
24825;BME280;12910;57.690;11.974;2023-04-01T06:07:36;100131.97;;;-2.69;100.00
24825;BME280;12910;57.690;11.974;2023-04-01T06:10:01;100129.47;;;-2.69;100.00
24825;BME280;12910;57.690;11.974;2023-04-01T06:13:00;100131.91;;;-2.70;100.00
24825;BME280;12910;57.690;11.974;2023-04-01T06:53:46;100178.22;;;-1.95;100.00
24825;BME280;12910;57.690;11.974;2023-04-01T06:56:18;100174.16;;;-1.93;100.00
24825;BME280;12910;57.690;11.974;2023-04-01T07:01:52;100178.75;;;-1.85;100.00
24825;BME280;12910;57.690;11.974;2023-04-01T07:04:29;100185.22;;;-1.76;100.00
24825;BME280;12910;57.690;11.974;2023-04-01T07:07:00;100184.72;;;-1.70;100.00
24825;BME280;12910;57.690;11.974;2023-04-01T07:09:32;100179.94;;;-1.65;100.00
24825;BME280;12910;57.690;11.974;2023-04-01T07:12:02;100184.28;;;-1.63;100.00
24825;BME280;12910;57.690;11.974;2023-04-01T07:14:39;100192.94;;;-1.58;100.00
24825;BME280;12910;57.690;11.974;2023-04-01T07:17:26;100199.13;;;-1.52;100.00
24825;BME280;12910;57.690;11.974;2023-04-01T07:20:05;100199.13;;;-1.52;100.00
24825;BME280;12910;57.690;11.974;2023-04-01T07:22:40;100202.75;;;-1.47;100.00
24825;BME280;12910;57.690;11.974;2023-04-01T07:27:42;100202.50;;;-1.37;100.00
24825;BME280;12910;57.690;11.974;2023-04-01T07:30:14;100211.06;;;-1.33;100.00
24825;BME280;12910;57.690;11.974;2023-04-01T07:35:45;100225.91;;;-1.23;100.00
24825;BME280;12910;57.690;11.974;2023-04-01T07:47:00;100233.03;;;-1.01;100.00
24825;BME280;12910;57.690;11.974;2023-04-01T07:55:40;100251.34;;;-0.88;100.00
24825;BME280;12910;57.690;11.974;2023-04-01T07:57:47;100245.06;;;-0.80;100.00
24825;BME280;12910;57.690;11.974;2023-04-01T08:00:27;100248.72;;;-0.75;100.00
24825;BME280;12910;57.690;11.974;2023-04-01T08:06:10;100250.97;;;-0.65;100.00
24825;BME280;12910;57.690;11.974;2023-04-01T08:17:02;100259.34;;;-0.49;100.00
24825;BME280;12910;57.690;11.974;2023-04-01T08:25:04;100263.50;;;-0.35;100.00
24825;BME280;12910;57.690;11.974;2023-04-01T08:27:56;100267.06;;;-0.31;100.00
24825;BME280;12910;57.690;11.974;2023-04-01T08:30:26;100277.28;;;-0.28;100.00
24825;BME280;12910;57.690;11.974;2023-04-01T08:32:59;100273.31;;;-0.24;100.00
24825;BME280;12910;57.690;11.974;2023-04-01T08:38:18;100269.03;;;-0.25;100.00
24825;BME280;12910;57.690;11.974;2023-04-01T08:54:46;100286.13;;;0.12;100.00
24825;BME280;12910;57.690;11.974;2023-04-01T08:57:35;100281.88;;;0.11;100.00
24825;BME280;12910;57.690;11.974;2023-04-01T09:03:14;100281.69;;;0.24;100.00
24825;BME280;12910;57.690;11.974;2023-04-01T09:14:07;100291.88;;;0.42;100.00
24825;BME280;12910;57.690;11.974;2023-04-01T09:16:43;100291.56;;;0.53;100.00
24825;BME280;12910;57.690;11.974;2023-04-01T09:27:29;100284.66;;;0.65;100.00
24825;BME280;12910;57.690;11.974;2023-04-01T09:35:21;100295.56;;;0.82;100.00
24825;BME280;12910;57.690;11.974;2023-04-01T09:40:54;100287.38;;;0.86;98.38
24825;BME280;12910;57.690;11.974;2023-04-01T10:25:33;100312.25;;;1.66;100.00
24825;BME280;12910;57.690;11.974;2023-04-01T10:28:48;100314.31;;;1.75;100.00
24825;BME280;12910;57.690;11.974;2023-04-01T10:39:33;100321.09;;;1.94;100.00
24825;BME280;12910;57.690;11.974;2023-04-01T10:48:48;100313.56;;;2.13;100.00
24825;BME280;12910;57.690;11.974;2023-04-01T10:51:07;100321.28;;;2.16;100.00
24825;BME280;12910;57.690;11.974;2023-04-01T11:08:33;100339.56;;;2.48;100.00
24825;BME280;12910;57.690;11.974;2023-04-01T11:16:41;100343.38;;;2.58;100.00
24825;BME280;12910;57.690;11.974;2023-04-01T11:19:37;100335.84;;;2.60;100.00
24825;BME280;12910;57.690;11.974;2023-04-01T11:33:26;100343.88;;;2.71;100.00
24825;BME280;12910;57.690;11.974;2023-04-01T11:44:26;100362.94;;;2.82;91.53
24825;BME280;12910;57.690;11.974;2023-04-01T12:01:44;100362.16;;;3.24;100.00
24825;BME280;12910;57.690;11.974;2023-04-01T12:04:49;100362.69;;;3.36;100.00
24825;BME280;12910;57.690;11.974;2023-04-01T12:07:27;100375.53;;;3.41;97.71
24825;BME280;12910;57.690;11.974;2023-04-01T12:10:18;100351.06;;;3.41;91.18
24825;BME280;12910;57.690;11.974;2023-04-01T12:21:01;100381.34;;;3.59;75.09
24825;BME280;12910;57.690;11.974;2023-04-01T12:26:16;100379.94;;;3.66;70.16
24825;BME280;12910;57.690;11.974;2023-04-01T13:02:07;100435.84;;;3.69;55.67
24825;BME280;12910;57.690;11.974;2023-04-01T13:08:17;100438.84;;;3.82;57.26
24825;BME280;12910;57.690;11.974;2023-04-01T13:10:20;100441.38;;;3.82;56.89
24825;BME280;12910;57.690;11.974;2023-04-01T13:15:47;100437.19;;;3.82;56.34
24825;BME280;12910;57.690;11.974;2023-04-01T13:18:22;100447.25;;;3.81;56.37
24825;BME280;12910;57.690;11.974;2023-04-01T13:20:57;100441.50;;;3.85;56.70
24825;BME280;12910;57.690;11.974;2023-04-01T13:26:25;100448.88;;;3.79;56.78
24825;BME280;12910;57.690;11.974;2023-04-01T13:28:59;100450.63;;;3.80;58.23
24825;BME280;12910;57.690;11.974;2023-04-01T13:34:44;100462.97;;;3.93;60.50
24825;BME280;12910;57.690;11.974;2023-04-01T13:37:22;100456.53;;;4.01;62.60
24825;BME280;12910;57.690;11.974;2023-04-01T13:42:51;100465.56;;;4.16;62.48
24825;BME280;12910;57.690;11.974;2023-04-01T13:45:22;100470.03;;;4.21;64.88
24825;BME280;12910;57.690;11.974;2023-04-01T13:48:16;100460.38;;;4.13;60.50
24825;BME280;12910;57.690;11.974;2023-04-01T14:05:48;100481.28;;;4.07;61.46
24825;BME280;12910;57.690;11.974;2023-04-01T14:13:59;100485.53;;;4.29;68.76
24825;BME280;12910;57.690;11.974;2023-04-01T14:19:22;100495.22;;;4.17;62.15
24825;BME280;12910;57.690;11.974;2023-04-01T14:22:09;100488.13;;;4.10;61.92
24825;BME280;12910;57.690;11.974;2023-04-01T14:25:17;100491.69;;;4.13;63.16
24825;BME280;12910;57.690;11.974;2023-04-01T14:36:08;100500.66;;;4.26;67.76
24825;BME280;12910;57.690;11.974;2023-04-01T14:48:23;100522.50;;;4.23;66.90
24825;BME280;12910;57.690;11.974;2023-04-01T14:50:53;100521.84;;;4.28;66.02
24825;BME280;12910;57.690;11.974;2023-04-01T14:55:48;100528.22;;;4.40;72.21
24825;BME280;12910;57.690;11.974;2023-04-01T14:58:17;100528.31;;;4.41;68.79
24825;BME280;12910;57.690;11.974;2023-04-01T15:03:32;100535.13;;;4.42;66.85
24825;BME280;12910;57.690;11.974;2023-04-01T15:11:43;100544.78;;;4.30;66.96
24825;BME280;12910;57.690;11.974;2023-04-01T15:31:08;100577.56;;;4.25;73.19
24825;BME280;12910;57.690;11.974;2023-04-01T15:52:56;100592.97;;;4.30;75.47
24825;BME280;12910;57.690;11.974;2023-04-01T15:55:31;100590.16;;;4.24;76.71
24825;BME280;12910;57.690;11.974;2023-04-01T16:03:23;100604.13;;;4.33;85.47
24825;BME280;12910;57.690;11.974;2023-04-01T16:08:45;100615.63;;;4.46;88.50
24825;BME280;12910;57.690;11.974;2023-04-01T16:25:36;100646.78;;;4.42;90.27
24825;BME280;12910;57.690;11.974;2023-04-01T16:30:58;100665.25;;;4.40;92.21
24825;BME280;12910;57.690;11.974;2023-04-01T16:33:35;100654.19;;;4.38;94.92
24825;BME280;12910;57.690;11.974;2023-04-01T16:36:17;100657.63;;;4.40;94.49
24825;BME280;12910;57.690;11.974;2023-04-01T16:39:22;100662.63;;;4.36;95.69
24825;BME280;12910;57.690;11.974;2023-04-01T16:42:09;100661.47;;;4.30;96.81
24825;BME280;12910;57.690;11.974;2023-04-01T16:45:16;100677.56;;;4.30;97.71
24825;BME280;12910;57.690;11.974;2023-04-01T16:47:58;100679.03;;;4.25;95.93
24825;BME280;12910;57.690;11.974;2023-04-01T16:51:03;100679.84;;;4.24;97.59
24825;BME280;12910;57.690;11.974;2023-04-01T16:53:49;100680.63;;;4.23;98.87
24825;BME280;12910;57.690;11.974;2023-04-01T16:56:27;100688.91;;;4.19;100.00
24825;BME280;12910;57.690;11.974;2023-04-01T16:59:02;100706.66;;;4.19;100.00
24825;BME280;12910;57.690;11.974;2023-04-01T17:01:47;100705.47;;;4.11;100.00
24825;BME280;12910;57.690;11.974;2023-04-01T17:06:54;100697.47;;;4.01;100.00
24825;BME280;12910;57.690;11.974;2023-04-01T17:12:18;100725.56;;;4.06;100.00
24825;BME280;12910;57.690;11.974;2023-04-01T17:15:11;100739.78;;;4.02;100.00
24825;BME280;12910;57.690;11.974;2023-04-01T17:17:54;100731.00;;;3.96;100.00
24825;BME280;12910;57.690;11.974;2023-04-01T17:31:10;100767.00;;;3.69;100.00
24825;BME280;12910;57.690;11.974;2023-04-01T17:33:58;100777.81;;;3.65;100.00
24825;BME280;12910;57.690;11.974;2023-04-01T17:47:15;100797.13;;;3.45;100.00
24825;BME280;12910;57.690;11.974;2023-04-01T17:52:29;100801.81;;;3.37;100.00
24825;BME280;12910;57.690;11.974;2023-04-01T17:57:46;100818.25;;;3.27;100.00
24825;BME280;12910;57.690;11.974;2023-04-01T18:00:27;100823.16;;;3.24;100.00
24825;BME280;12910;57.690;11.974;2023-04-01T18:03:12;100825.53;;;3.21;100.00
24825;BME280;12910;57.690;11.974;2023-04-01T18:06:14;100835.34;;;3.15;100.00
24825;BME280;12910;57.690;11.974;2023-04-01T18:09:24;100849.63;;;3.13;100.00
24825;BME280;12910;57.690;11.974;2023-04-01T18:14:43;100855.88;;;3.03;100.00
24825;BME280;12910;57.690;11.974;2023-04-01T18:22:29;100856.25;;;2.94;100.00
24825;BME280;12910;57.690;11.974;2023-04-01T18:25:29;100865.47;;;2.92;100.00
24825;BME280;12910;57.690;11.974;2023-04-01T18:31:03;100882.94;;;2.87;100.00
24825;BME280;12910;57.690;11.974;2023-04-01T18:36:44;100892.19;;;2.87;100.00
24825;BME280;12910;57.690;11.974;2023-04-01T18:39:17;100892.75;;;2.81;100.00
24825;BME280;12910;57.690;11.974;2023-04-01T18:42:14;100902.88;;;2.81;100.00
24825;BME280;12910;57.690;11.974;2023-04-01T18:50:32;100915.13;;;2.73;100.00
24825;BME280;12910;57.690;11.974;2023-04-01T18:55:48;100919.84;;;2.67;100.00
24825;BME280;12910;57.690;11.974;2023-04-01T18:58:25;100926.97;;;2.58;100.00
24825;BME280;12910;57.690;11.974;2023-04-01T19:01:12;100914.84;;;2.52;100.00
24825;BME280;12910;57.690;11.974;2023-04-01T19:03:43;100926.88;;;2.56;100.00
24825;BME280;12910;57.690;11.974;2023-04-01T19:06:35;100932.66;;;2.54;100.00
24825;BME280;12910;57.690;11.974;2023-04-01T19:09:20;100932.31;;;2.47;100.00
24825;BME280;12910;57.690;11.974;2023-04-01T19:12:12;100937.38;;;2.47;100.00
24825;BME280;12910;57.690;11.974;2023-04-01T19:20:22;100957.47;;;2.44;100.00
24825;BME280;12910;57.690;11.974;2023-04-01T19:28:52;100965.22;;;2.32;100.00
24825;BME280;12910;57.690;11.974;2023-04-01T19:34:03;100973.72;;;2.33;100.00
24825;BME280;12910;57.690;11.974;2023-04-01T19:42:24;100981.81;;;2.27;100.00
24825;BME280;12910;57.690;11.974;2023-04-01T19:50:59;101004.41;;;2.24;100.00
24825;BME280;12910;57.690;11.974;2023-04-01T19:53:34;101005.09;;;2.22;100.00
24825;BME280;12910;57.690;11.974;2023-04-01T20:01:09;101021.97;;;2.21;100.00
24825;BME280;12910;57.690;11.974;2023-04-01T20:03:50;101029.44;;;2.20;100.00
24825;BME280;12910;57.690;11.974;2023-04-01T20:06:37;101029.88;;;2.12;100.00
24825;BME280;12910;57.690;11.974;2023-04-01T20:09:45;101027.09;;;2.08;100.00
24825;BME280;12910;57.690;11.974;2023-04-01T20:14:49;101035.13;;;2.00;100.00
24825;BME280;12910;57.690;11.974;2023-04-01T20:17:26;101030.03;;;1.85;100.00
24825;BME280;12910;57.690;11.974;2023-04-01T20:20:01;101037.88;;;1.90;100.00
24825;BME280;12910;57.690;11.974;2023-04-01T20:28:06;101049.34;;;1.70;100.00
24825;BME280;12910;57.690;11.974;2023-04-01T20:41:16;101053.69;;;1.58;100.00
24825;BME280;12910;57.690;11.974;2023-04-01T20:44:09;101068.50;;;1.66;100.00
24825;BME280;12910;57.690;11.974;2023-04-01T20:51:43;101092.16;;;1.53;100.00
24825;BME280;12910;57.690;11.974;2023-04-01T20:57:06;101099.75;;;1.40;100.00
24825;BME280;12910;57.690;11.974;2023-04-01T21:00:16;101105.78;;;1.42;100.00
24825;BME280;12910;57.690;11.974;2023-04-01T21:11:51;101123.31;;;1.39;100.00
24825;BME280;12910;57.690;11.974;2023-04-01T21:14:33;101120.66;;;1.37;100.00
24825;BME280;12910;57.690;11.974;2023-04-01T21:23:16;101135.94;;;1.26;100.00
24825;BME280;12910;57.690;11.974;2023-04-01T21:25:56;101144.00;;;1.20;100.00
24825;BME280;12910;57.690;11.974;2023-04-01T21:42:12;101165.66;;;1.16;100.00
24825;BME280;12910;57.690;11.974;2023-04-01T21:55:33;101170.63;;;1.01;100.00
24825;BME280;12910;57.690;11.974;2023-04-01T22:09:21;101199.41;;;0.78;100.00
24825;BME280;12910;57.690;11.974;2023-04-01T22:12:04;101207.59;;;0.87;100.00
24825;BME280;12910;57.690;11.974;2023-04-01T22:17:25;101214.84;;;0.83;100.00
24825;BME280;12910;57.690;11.974;2023-04-01T22:22:55;101216.41;;;0.81;100.00
24825;BME280;12910;57.690;11.974;2023-04-01T22:28:29;101218.34;;;0.85;100.00
24825;BME280;12910;57.690;11.974;2023-04-01T22:31:03;101220.59;;;0.80;100.00
24825;BME280;12910;57.690;11.974;2023-04-01T22:36:48;101233.19;;;0.80;100.00
24825;BME280;12910;57.690;11.974;2023-04-01T22:40:09;101228.72;;;0.76;100.00
24825;BME280;12910;57.690;11.974;2023-04-01T22:42:44;101230.47;;;0.77;100.00
24825;BME280;12910;57.690;11.974;2023-04-01T22:47:57;101235.13;;;0.71;100.00
24825;BME280;12910;57.690;11.974;2023-04-01T22:55:47;101245.00;;;0.68;100.00
24825;BME280;12910;57.690;11.974;2023-04-01T22:58:19;101248.59;;;0.71;100.00
24825;BME280;12910;57.690;11.974;2023-04-01T23:00:54;101245.69;;;0.65;100.00
24825;BME280;12910;57.690;11.974;2023-04-01T23:03:41;101257.41;;;0.65;100.00
24825;BME280;12910;57.690;11.974;2023-04-01T23:06:14;101267.50;;;0.65;100.00
24825;BME280;12910;57.690;11.974;2023-04-01T23:11:15;101263.06;;;0.49;100.00
24825;BME280;12910;57.690;11.974;2023-04-01T23:14:02;101268.09;;;0.49;100.00
24825;BME280;12910;57.690;11.974;2023-04-01T23:16:37;101275.22;;;0.54;100.00
24825;BME280;12910;57.690;11.974;2023-04-01T23:19:23;101276.97;;;0.55;100.00
24825;BME280;12910;57.690;11.974;2023-04-01T23:22:15;101277.63;;;0.53;100.00
24825;BME280;12910;57.690;11.974;2023-04-01T23:24:55;101279.38;;;0.54;100.00